Bookmark and Share
Track history (hours):
 

First Ferry Vi

Last reported at 2014-Apr-20 04:33 UTC. Time now 2014-Apr-20 05:43 UTC.
Position N 22°17' E 114°10'.

Length 36 m; draft 1.8 m.

Type: Ship. MMSI: 477995028.

NotesDate/timePositionNaut miles runAvg speedWind from/ knotsBaromVisibWave heightAir tempDewpointWater temp
2014-Apr-20 04:33N 22°17' E 114°10'0 0.1
2014-Apr-20 03:33N 22°17' E 114°10'0 0.0
2014-Apr-20 01:21N 22°17' E 114°10'0 0.1
2014-Apr-19 23:33N 22°17' E 114°10'0 0.0
2014-Apr-19 16:33N 22°17' E 114°10'1 0.7
2014-Apr-19 14:29N 22°18' E 114°08'0 0.0
2014-Apr-19 12:30N 22°18' E 114°08'0 0.1
2014-Apr-19 10:29N 22°18' E 114°08'0 0.2
2014-Apr-19 08:29N 22°18' E 114°08'0 0.1
2014-Apr-19 06:28N 22°18' E 114°08'0 0.0
2014-Apr-19 05:11N 22°18' E 114°08'0 0.4
2014-Apr-19 04:33N 22°18' E 114°08'1 1.2
2014-Apr-19 03:33N 22°17' E 114°10'0 0.1
2014-Apr-19 01:18N 22°17' E 114°10'0 0.0
2014-Apr-18 23:32N 22°17' E 114°10'0 0.0
2014-Apr-18 16:33N 22°17' E 114°10'2 0.8
2014-Apr-18 14:30N 22°18' E 114°08'1 0.3
2014-Apr-18 12:31N 22°18' E 114°07'1 0.3
2014-Apr-18 10:28N 22°18' E 114°08'6 2.0
2014-Apr-18 07:29N 22°16' E 114°02'  
2014-Apr-16 01:13N 22°19' E 114°09'1 0.8
2014-Apr-15 23:28N 22°17' E 114°10'8 8.5
2014-Apr-15 22:31N 22°15' E 114°01'0 0.0
2014-Apr-15 17:04N 22°15' E 114°01'816.0
2014-Apr-15 16:33N 22°17' E 114°10'0 0.1
2014-Apr-15 14:23N 22°17' E 114°10'1 0.8
2014-Apr-15 12:29N 22°18' E 114°08'2 0.1
2014-Apr-15 00:31N 22°17' E 114°10'1 1.3
2014-Apr-14 23:30N 22°18' E 114°09'1 0.1
2014-Apr-14 14:33N 22°17' E 114°10'1 0.3
2014-Apr-14 11:34N 22°18' E 114°09'7 0.4
2014-Apr-13 16:15N 22°15' E 114°01'8 8.4
2014-Apr-13 15:18N 22°17' E 114°10'7 5.9
2014-Apr-13 14:04N 22°16' E 114°02'7 7.8
2014-Apr-13 13:08N 22°17' E 114°10'0 0.1
2014-Apr-13 11:11N 22°17' E 114°10'0 0.1
2014-Apr-13 09:10N 22°17' E 114°10'0 0.0
2014-Apr-13 07:10N 22°17' E 114°10'0 0.0
2014-Apr-13 05:08N 22°17' E 114°10'1 1.3
2014-Apr-13 04:09N 22°18' E 114°08'0 0.2
2014-Apr-13 02:30N 22°18' E 114°08'2 0.5
2014-Apr-12 23:06N 22°19' E 114°09'710.5
2014-Apr-12 22:29N 22°16' E 114°03'7 0.9
2014-Apr-12 15:33N 22°17' E 114°10'2 1.1
2014-Apr-12 14:09N 22°18' E 114°08'2 0.5
2014-Apr-12 11:09N 22°17' E 114°10'1 1.5
2014-Apr-12 10:09N 22°18' E 114°08'2 2.4
2014-Apr-12 09:25N 22°17' E 114°10'0 0.1
2014-Apr-12 07:19N 22°17' E 114°10'1 0.3
2014-Apr-12 03:30N 22°18' E 114°11'1 0.4
2014-Apr-12 01:26N 22°17' E 114°10'2 1.6
2014-Apr-12 00:30N 22°19' E 114°09'9 9.1
2014-Apr-11 23:28N 22°13' E 114°01'3 2.9
2014-Apr-11 22:28N 22°16' E 114°02'1 0.4
2014-Apr-11 20:10N 22°15' E 114°02'1 0.2
2014-Apr-11 16:06N 22°15' E 114°01'814.6
2014-Apr-11 15:33N 22°17' E 114°10'2 1.2
2014-Apr-11 14:09N 22°18' E 114°08'2 2.2
2014-Apr-11 13:24N 22°17' E 114°10'0 0.1
2014-Apr-11 12:32N 22°17' E 114°10'2 1.8
2014-Apr-11 11:25N 22°18' E 114°08'3 0.5
2014-Apr-11 05:30N 22°18' E 114°11'1 0.6
2014-Apr-11 03:20N 22°17' E 114°10'0 0.2
2014-Apr-11 01:27N 22°17' E 114°10'2 1.8
2014-Apr-11 00:30N 22°19' E 114°09'1 1.1
2014-Apr-10 23:08N 22°18' E 114°08'4 6.5
2014-Apr-10 22:32N 22°17' E 114°04'2 1.9
2014-Apr-10 21:16N 22°15' E 114°02'7 1.3
2014-Apr-10 15:33N 22°17' E 114°10'1 1.0
2014-Apr-10 14:09N 22°18' E 114°08'1 0.8
2014-Apr-10 12:30N 22°17' E 114°10'2 1.4
2014-Apr-10 11:24N 22°18' E 114°08'0 0.1
2014-Apr-10 10:09N 22°18' E 114°08'3 0.6
2014-Apr-10 05:32N 22°18' E 114°11'  

Dump ship's entire track history

sailing weather and tide predictions

First Ferry Vi — VRS4293 — position and weather